sensor_id;sensor_type;location;lat;lon;timestamp;P1;durP1;ratioP1;P2;durP2;ratioP2
34673;SDS011;20879;55.668;37.858;2023-04-25T00:01:06;19.10;;;7.85;;
34673;SDS011;20879;55.668;37.858;2023-04-25T00:03:35;15.52;;;7.35;;
34673;SDS011;20879;55.668;37.858;2023-04-25T00:06:05;13.02;;;7.20;;
34673;SDS011;20879;55.668;37.858;2023-04-25T00:08:38;17.92;;;7.38;;
34673;SDS011;20879;55.668;37.858;2023-04-25T00:11:07;18.17;;;7.28;;
34673;SDS011;20879;55.668;37.858;2023-04-25T00:13:37;13.48;;;7.03;;
34673;SDS011;20879;55.668;37.858;2023-04-25T00:16:08;14.55;;;7.25;;
34673;SDS011;20879;55.668;37.858;2023-04-25T00:18:42;14.50;;;7.57;;
34673;SDS011;20879;55.668;37.858;2023-04-25T00:21:12;15.23;;;7.35;;
34673;SDS011;20879;55.668;37.858;2023-04-25T00:23:45;16.27;;;6.88;;
34673;SDS011;20879;55.668;37.858;2023-04-25T00:26:16;15.05;;;7.22;;
34673;SDS011;20879;55.668;37.858;2023-04-25T00:28:45;11.88;;;6.88;;
34673;SDS011;20879;55.668;37.858;2023-04-25T00:31:14;16.27;;;6.82;;
34673;SDS011;20879;55.668;37.858;2023-04-25T00:33:45;11.13;;;6.50;;
34673;SDS011;20879;55.668;37.858;2023-04-25T00:36:15;10.68;;;6.28;;
34673;SDS011;20879;55.668;37.858;2023-04-25T00:38:47;13.10;;;6.47;;
34673;SDS011;20879;55.668;37.858;2023-04-25T00:41:21;10.43;;;6.10;;
34673;SDS011;20879;55.668;37.858;2023-04-25T00:44:02;13.02;;;6.35;;
34673;SDS011;20879;55.668;37.858;2023-04-25T00:46:33;12.73;;;6.07;;
34673;SDS011;20879;55.668;37.858;2023-04-25T00:49:04;13.32;;;6.45;;
34673;SDS011;20879;55.668;37.858;2023-04-25T00:51:34;10.20;;;6.57;;
34673;SDS011;20879;55.668;37.858;2023-04-25T00:54:06;12.93;;;6.03;;
34673;SDS011;20879;55.668;37.858;2023-04-25T00:56:40;11.38;;;6.50;;
34673;SDS011;20879;55.668;37.858;2023-04-25T00:59:11;13.00;;;6.38;;
34673;SDS011;20879;55.668;37.858;2023-04-25T01:01:46;10.13;;;6.22;;
34673;SDS011;20879;55.668;37.858;2023-04-25T01:04:16;13.43;;;6.32;;
34673;SDS011;20879;55.668;37.858;2023-04-25T01:06:51;13.35;;;6.22;;
34673;SDS011;20879;55.668;37.858;2023-04-25T01:09:29;14.88;;;6.05;;
34673;SDS011;20879;55.668;37.858;2023-04-25T01:11:59;12.75;;;6.50;;
34673;SDS011;20879;55.668;37.858;2023-04-25T01:14:29;9.90;;;5.90;;
34673;SDS011;20879;55.668;37.858;2023-04-25T01:17:05;9.55;;;6.05;;
34673;SDS011;20879;55.668;37.858;2023-04-25T01:19:40;10.95;;;5.47;;
34673;SDS011;20879;55.668;37.858;2023-04-25T01:24:54;11.35;;;5.90;;
34673;SDS011;20879;55.668;37.858;2023-04-25T01:27:24;8.15;;;5.60;;
34673;SDS011;20879;55.668;37.858;2023-04-25T01:29:55;11.57;;;5.97;;
34673;SDS011;20879;55.668;37.858;2023-04-25T01:32:36;13.20;;;6.28;;
34673;SDS011;20879;55.668;37.858;2023-04-25T01:35:07;11.52;;;5.72;;
34673;SDS011;20879;55.668;37.858;2023-04-25T01:37:40;16.55;;;6.50;;
34673;SDS011;20879;55.668;37.858;2023-04-25T01:40:11;11.43;;;6.05;;
34673;SDS011;20879;55.668;37.858;2023-04-25T01:42:47;9.70;;;5.75;;
34673;SDS011;20879;55.668;37.858;2023-04-25T01:45:18;10.02;;;6.10;;
34673;SDS011;20879;55.668;37.858;2023-04-25T01:47:48;13.57;;;6.68;;
34673;SDS011;20879;55.668;37.858;2023-04-25T01:53:01;11.73;;;6.05;;
34673;SDS011;20879;55.668;37.858;2023-04-25T01:55:35;16.50;;;6.63;;
34673;SDS011;20879;55.668;37.858;2023-04-25T01:58:08;11.43;;;6.80;;
34673;SDS011;20879;55.668;37.858;2023-04-25T02:00:56;17.00;;;7.00;;
34673;SDS011;20879;55.668;37.858;2023-04-25T02:03:31;11.63;;;6.05;;
34673;SDS011;20879;55.668;37.858;2023-04-25T02:08:46;10.43;;;5.63;;
34673;SDS011;20879;55.668;37.858;2023-04-25T02:11:22;13.02;;;6.43;;
34673;SDS011;20879;55.668;37.858;2023-04-25T02:14:21;12.57;;;6.47;;
34673;SDS011;20879;55.668;37.858;2023-04-25T02:17:11;12.68;;;5.75;;
34673;SDS011;20879;55.668;37.858;2023-04-25T02:19:41;13.93;;;6.78;;
34673;SDS011;20879;55.668;37.858;2023-04-25T02:22:10;13.23;;;7.22;;
34673;SDS011;20879;55.668;37.858;2023-04-25T02:24:41;13.82;;;7.00;;
34673;SDS011;20879;55.668;37.858;2023-04-25T02:27:11;15.73;;;7.18;;
34673;SDS011;20879;55.668;37.858;2023-04-25T02:29:41;14.10;;;7.20;;
34673;SDS011;20879;55.668;37.858;2023-04-25T02:32:10;13.30;;;6.65;;
34673;SDS011;20879;55.668;37.858;2023-04-25T02:34:40;12.57;;;6.70;;
34673;SDS011;20879;55.668;37.858;2023-04-25T02:37:09;15.20;;;6.25;;
34673;SDS011;20879;55.668;37.858;2023-04-25T02:39:38;14.32;;;6.78;;
34673;SDS011;20879;55.668;37.858;2023-04-25T02:42:14;13.45;;;6.32;;
34673;SDS011;20879;55.668;37.858;2023-04-25T02:44:44;8.38;;;5.63;;
34673;SDS011;20879;55.668;37.858;2023-04-25T02:47:13;9.63;;;5.65;;
34673;SDS011;20879;55.668;37.858;2023-04-25T02:49:43;11.40;;;5.72;;
34673;SDS011;20879;55.668;37.858;2023-04-25T02:52:12;10.93;;;5.63;;
34673;SDS011;20879;55.668;37.858;2023-04-25T02:54:43;12.35;;;5.70;;
34673;SDS011;20879;55.668;37.858;2023-04-25T02:57:15;10.00;;;5.53;;
34673;SDS011;20879;55.668;37.858;2023-04-25T02:59:50;11.57;;;5.82;;
34673;SDS011;20879;55.668;37.858;2023-04-25T03:02:25;12.70;;;5.95;;
34673;SDS011;20879;55.668;37.858;2023-04-25T03:04:54;11.75;;;5.55;;
34673;SDS011;20879;55.668;37.858;2023-04-25T03:07:24;8.77;;;5.22;;
34673;SDS011;20879;55.668;37.858;2023-04-25T03:09:53;12.63;;;5.78;;
34673;SDS011;20879;55.668;37.858;2023-04-25T03:12:25;9.85;;;5.03;;
34673;SDS011;20879;55.668;37.858;2023-04-25T03:14:54;10.40;;;5.03;;
34673;SDS011;20879;55.668;37.858;2023-04-25T03:17:24;14.07;;;5.70;;
34673;SDS011;20879;55.668;37.858;2023-04-25T03:19:58;14.18;;;5.32;;
34673;SDS011;20879;55.668;37.858;2023-04-25T03:22:30;9.75;;;5.20;;
34673;SDS011;20879;55.668;37.858;2023-04-25T03:24:59;12.60;;;5.43;;
34673;SDS011;20879;55.668;37.858;2023-04-25T03:27:32;8.68;;;5.32;;
34673;SDS011;20879;55.668;37.858;2023-04-25T03:30:02;10.93;;;7.43;;
34673;SDS011;20879;55.668;37.858;2023-04-25T03:32:34;15.95;;;6.10;;
34673;SDS011;20879;55.668;37.858;2023-04-25T03:35:09;11.48;;;5.82;;
34673;SDS011;20879;55.668;37.858;2023-04-25T03:37:39;9.60;;;5.72;;
34673;SDS011;20879;55.668;37.858;2023-04-25T03:40:27;11.85;;;5.90;;
34673;SDS011;20879;55.668;37.858;2023-04-25T03:43:27;13.43;;;5.70;;
34673;SDS011;20879;55.668;37.858;2023-04-25T03:46:02;13.52;;;5.88;;
34673;SDS011;20879;55.668;37.858;2023-04-25T03:48:32;12.30;;;6.50;;
34673;SDS011;20879;55.668;37.858;2023-04-25T03:51:01;13.55;;;6.53;;
34673;SDS011;20879;55.668;37.858;2023-04-25T03:53:33;12.43;;;6.38;;
34673;SDS011;20879;55.668;37.858;2023-04-25T03:56:19;11.25;;;6.15;;
34673;SDS011;20879;55.668;37.858;2023-04-25T03:59:03;17.90;;;5.97;;
34673;SDS011;20879;55.668;37.858;2023-04-25T04:01:34;13.07;;;7.07;;
34673;SDS011;20879;55.668;37.858;2023-04-25T04:04:03;10.73;;;6.22;;
34673;SDS011;20879;55.668;37.858;2023-04-25T04:06:33;10.85;;;5.35;;
34673;SDS011;20879;55.668;37.858;2023-04-25T04:09:10;9.52;;;5.78;;
34673;SDS011;20879;55.668;37.858;2023-04-25T04:11:53;10.13;;;5.55;;
34673;SDS011;20879;55.668;37.858;2023-04-25T04:14:25;11.27;;;6.07;;
34673;SDS011;20879;55.668;37.858;2023-04-25T04:16:54;7.63;;;5.53;;
34673;SDS011;20879;55.668;37.858;2023-04-25T04:19:34;11.55;;;5.70;;
34673;SDS011;20879;55.668;37.858;2023-04-25T04:22:09;14.38;;;5.80;;
34673;SDS011;20879;55.668;37.858;2023-04-25T04:24:39;10.88;;;5.30;;
34673;SDS011;20879;55.668;37.858;2023-04-25T04:30:12;11.70;;;6.05;;
34673;SDS011;20879;55.668;37.858;2023-04-25T04:32:53;11.63;;;5.57;;
34673;SDS011;20879;55.668;37.858;2023-04-25T04:35:23;14.05;;;6.03;;
34673;SDS011;20879;55.668;37.858;2023-04-25T04:37:57;12.02;;;5.60;;
34673;SDS011;20879;55.668;37.858;2023-04-25T04:40:32;16.00;;;5.53;;
34673;SDS011;20879;55.668;37.858;2023-04-25T04:43:11;12.40;;;5.88;;
34673;SDS011;20879;55.668;37.858;2023-04-25T04:46:03;14.30;;;6.13;;
34673;SDS011;20879;55.668;37.858;2023-04-25T04:48:52;15.05;;;6.00;;
34673;SDS011;20879;55.668;37.858;2023-04-25T04:51:41;14.10;;;5.75;;
34673;SDS011;20879;55.668;37.858;2023-04-25T04:54:29;16.92;;;6.25;;
34673;SDS011;20879;55.668;37.858;2023-04-25T04:57:32;12.07;;;6.18;;
34673;SDS011;20879;55.668;37.858;2023-04-25T05:00:15;12.32;;;6.07;;
34673;SDS011;20879;55.668;37.858;2023-04-25T05:02:49;11.13;;;5.60;;
34673;SDS011;20879;55.668;37.858;2023-04-25T05:05:50;11.23;;;5.93;;
34673;SDS011;20879;55.668;37.858;2023-04-25T05:09:01;13.95;;;5.90;;
34673;SDS011;20879;55.668;37.858;2023-04-25T05:12:05;14.00;;;5.93;;
34673;SDS011;20879;55.668;37.858;2023-04-25T05:14:55;11.85;;;5.63;;
34673;SDS011;20879;55.668;37.858;2023-04-25T05:17:45;14.68;;;6.05;;
34673;SDS011;20879;55.668;37.858;2023-04-25T05:20:32;12.80;;;7.22;;
34673;SDS011;20879;55.668;37.858;2023-04-25T05:23:34;13.45;;;6.88;;
34673;SDS011;20879;55.668;37.858;2023-04-25T05:26:29;14.02;;;5.93;;
34673;SDS011;20879;55.668;37.858;2023-04-25T05:29:06;12.23;;;6.10;;
34673;SDS011;20879;55.668;37.858;2023-04-25T05:31:59;10.85;;;5.13;;
34673;SDS011;20879;55.668;37.858;2023-04-25T05:34:29;12.23;;;5.60;;
34673;SDS011;20879;55.668;37.858;2023-04-25T05:37:03;11.52;;;5.20;;
34673;SDS011;20879;55.668;37.858;2023-04-25T05:39:39;10.95;;;5.22;;
34673;SDS011;20879;55.668;37.858;2023-04-25T05:42:31;10.40;;;5.22;;
34673;SDS011;20879;55.668;37.858;2023-04-25T05:45:17;10.75;;;4.75;;
34673;SDS011;20879;55.668;37.858;2023-04-25T05:48:07;8.63;;;4.90;;
34673;SDS011;20879;55.668;37.858;2023-04-25T05:50:54;9.52;;;5.00;;
34673;SDS011;20879;55.668;37.858;2023-04-25T05:53:54;7.50;;;4.43;;
34673;SDS011;20879;55.668;37.858;2023-04-25T05:56:24;12.68;;;5.80;;
34673;SDS011;20879;55.668;37.858;2023-04-25T05:59:03;9.35;;;4.13;;
34673;SDS011;20879;55.668;37.858;2023-04-25T06:01:33;9.77;;;4.57;;
34673;SDS011;20879;55.668;37.858;2023-04-25T06:04:03;10.75;;;4.40;;
34673;SDS011;20879;55.668;37.858;2023-04-25T06:06:33;9.55;;;4.53;;
34673;SDS011;20879;55.668;37.858;2023-04-25T06:12:05;14.75;;;4.60;;
34673;SDS011;20879;55.668;37.858;2023-04-25T06:14:35;12.57;;;4.55;;
34673;SDS011;20879;55.668;37.858;2023-04-25T06:17:05;8.48;;;4.25;;
34673;SDS011;20879;55.668;37.858;2023-04-25T06:19:40;11.90;;;4.45;;
34673;SDS011;20879;55.668;37.858;2023-04-25T06:22:09;15.02;;;4.60;;
34673;SDS011;20879;55.668;37.858;2023-04-25T06:24:54;10.40;;;4.43;;
34673;SDS011;20879;55.668;37.858;2023-04-25T06:27:32;11.02;;;4.68;;
34673;SDS011;20879;55.668;37.858;2023-04-25T06:30:05;9.73;;;4.60;;
34673;SDS011;20879;55.668;37.858;2023-04-25T06:32:35;11.40;;;4.20;;
34673;SDS011;20879;55.668;37.858;2023-04-25T06:35:10;10.23;;;4.45;;
34673;SDS011;20879;55.668;37.858;2023-04-25T06:37:39;7.90;;;4.00;;
34673;SDS011;20879;55.668;37.858;2023-04-25T06:40:11;6.63;;;4.10;;
34673;SDS011;20879;55.668;37.858;2023-04-25T06:42:51;10.13;;;3.70;;
34673;SDS011;20879;55.668;37.858;2023-04-25T06:45:55;9.52;;;4.00;;
34673;SDS011;20879;55.668;37.858;2023-04-25T06:48:28;10.32;;;3.75;;
34673;SDS011;20879;55.668;37.858;2023-04-25T06:51:04;7.50;;;3.40;;
34673;SDS011;20879;55.668;37.858;2023-04-25T06:53:35;9.05;;;3.60;;
34673;SDS011;20879;55.668;37.858;2023-04-25T06:56:09;7.78;;;3.60;;
34673;SDS011;20879;55.668;37.858;2023-04-25T06:58:52;9.57;;;3.95;;
34673;SDS011;20879;55.668;37.858;2023-04-25T07:01:34;6.38;;;3.63;;
34673;SDS011;20879;55.668;37.858;2023-04-25T07:04:09;7.22;;;3.92;;
34673;SDS011;20879;55.668;37.858;2023-04-25T07:06:45;8.82;;;4.05;;
34673;SDS011;20879;55.668;37.858;2023-04-25T07:09:19;8.80;;;4.10;;
34673;SDS011;20879;55.668;37.858;2023-04-25T07:11:51;9.27;;;3.97;;
34673;SDS011;20879;55.668;37.858;2023-04-25T07:14:26;8.45;;;3.55;;
34673;SDS011;20879;55.668;37.858;2023-04-25T07:17:01;13.88;;;4.25;;
34673;SDS011;20879;55.668;37.858;2023-04-25T07:19:33;8.00;;;3.50;;
34673;SDS011;20879;55.668;37.858;2023-04-25T07:22:10;8.90;;;4.50;;
34673;SDS011;20879;55.668;37.858;2023-04-25T07:24:45;7.00;;;4.25;;
34673;SDS011;20879;55.668;37.858;2023-04-25T07:27:18;9.63;;;4.20;;
34673;SDS011;20879;55.668;37.858;2023-04-25T07:30:02;11.25;;;4.03;;
34673;SDS011;20879;55.668;37.858;2023-04-25T07:32:33;10.98;;;4.30;;
34673;SDS011;20879;55.668;37.858;2023-04-25T07:37:43;5.95;;;3.63;;
34673;SDS011;20879;55.668;37.858;2023-04-25T07:40:16;10.70;;;3.72;;
34673;SDS011;20879;55.668;37.858;2023-04-25T07:42:51;11.30;;;3.30;;
34673;SDS011;20879;55.668;37.858;2023-04-25T07:45:33;8.73;;;3.00;;
34673;SDS011;20879;55.668;37.858;2023-04-25T07:48:03;10.95;;;2.92;;
34673;SDS011;20879;55.668;37.858;2023-04-25T07:50:40;10.35;;;3.47;;
34673;SDS011;20879;55.668;37.858;2023-04-25T07:53:09;9.40;;;3.45;;
34673;SDS011;20879;55.668;37.858;2023-04-25T07:55:45;14.20;;;3.80;;
34673;SDS011;20879;55.668;37.858;2023-04-25T07:58:18;7.47;;;3.15;;
34673;SDS011;20879;55.668;37.858;2023-04-25T08:00:55;9.02;;;3.40;;
34673;SDS011;20879;55.668;37.858;2023-04-25T08:03:51;5.75;;;3.22;;
34673;SDS011;20879;55.668;37.858;2023-04-25T08:06:26;7.30;;;3.72;;
34673;SDS011;20879;55.668;37.858;2023-04-25T08:09:12;7.97;;;3.75;;
34673;SDS011;20879;55.668;37.858;2023-04-25T08:11:42;9.57;;;3.92;;
34673;SDS011;20879;55.668;37.858;2023-04-25T08:14:16;6.43;;;3.08;;
34673;SDS011;20879;55.668;37.858;2023-04-25T08:16:46;13.80;;;3.60;;
34673;SDS011;20879;55.668;37.858;2023-04-25T08:19:22;9.13;;;3.75;;
34673;SDS011;20879;55.668;37.858;2023-04-25T08:21:52;8.55;;;3.67;;
34673;SDS011;20879;55.668;37.858;2023-04-25T08:24:36;7.93;;;3.70;;
34673;SDS011;20879;55.668;37.858;2023-04-25T08:27:07;10.60;;;3.58;;
34673;SDS011;20879;55.668;37.858;2023-04-25T08:29:50;5.88;;;3.53;;
34673;SDS011;20879;55.668;37.858;2023-04-25T08:32:20;4.47;;;2.50;;
34673;SDS011;20879;55.668;37.858;2023-04-25T08:35:09;7.53;;;2.50;;
34673;SDS011;20879;55.668;37.858;2023-04-25T08:37:43;7.50;;;2.80;;
34673;SDS011;20879;55.668;37.858;2023-04-25T08:40:15;5.43;;;2.55;;
34673;SDS011;20879;55.668;37.858;2023-04-25T08:42:53;6.03;;;2.53;;
34673;SDS011;20879;55.668;37.858;2023-04-25T08:45:28;5.30;;;2.72;;
34673;SDS011;20879;55.668;37.858;2023-04-25T08:48:05;5.53;;;2.83;;
34673;SDS011;20879;55.668;37.858;2023-04-25T08:50:50;7.18;;;2.58;;
34673;SDS011;20879;55.668;37.858;2023-04-25T08:53:24;5.38;;;3.05;;
34673;SDS011;20879;55.668;37.858;2023-04-25T08:55:58;7.40;;;3.20;;
34673;SDS011;20879;55.668;37.858;2023-04-25T08:58:33;3.75;;;2.85;;
34673;SDS011;20879;55.668;37.858;2023-04-25T09:01:11;9.35;;;3.75;;
34673;SDS011;20879;55.668;37.858;2023-04-25T09:03:48;12.52;;;4.50;;
34673;SDS011;20879;55.668;37.858;2023-04-25T09:06:19;12.52;;;5.38;;
34673;SDS011;20879;55.668;37.858;2023-04-25T09:08:49;10.15;;;4.88;;
34673;SDS011;20879;55.668;37.858;2023-04-25T09:11:19;10.45;;;5.35;;
34673;SDS011;20879;55.668;37.858;2023-04-25T09:14:08;13.82;;;5.00;;
34673;SDS011;20879;55.668;37.858;2023-04-25T09:17:01;7.53;;;4.47;;
34673;SDS011;20879;55.668;37.858;2023-04-25T09:20:08;9.38;;;4.57;;
34673;SDS011;20879;55.668;37.858;2023-04-25T09:22:46;8.57;;;4.60;;
34673;SDS011;20879;55.668;37.858;2023-04-25T09:25:16;23.27;;;5.13;;
34673;SDS011;20879;55.668;37.858;2023-04-25T09:27:49;11.60;;;4.78;;
34673;SDS011;20879;55.668;37.858;2023-04-25T09:30:31;11.77;;;4.05;;
34673;SDS011;20879;55.668;37.858;2023-04-25T09:35:50;14.80;;;4.20;;
34673;SDS011;20879;55.668;37.858;2023-04-25T09:38:31;11.23;;;3.20;;
34673;SDS011;20879;55.668;37.858;2023-04-25T09:41:09;14.98;;;3.55;;
34673;SDS011;20879;55.668;37.858;2023-04-25T09:43:44;13.20;;;3.03;;
34673;SDS011;20879;55.668;37.858;2023-04-25T09:46:15;6.82;;;3.08;;
34673;SDS011;20879;55.668;37.858;2023-04-25T09:49:00;3.90;;;2.60;;
34673;SDS011;20879;55.668;37.858;2023-04-25T09:51:54;7.88;;;2.70;;
34673;SDS011;20879;55.668;37.858;2023-04-25T09:54:28;4.28;;;2.38;;
34673;SDS011;20879;55.668;37.858;2023-04-25T09:57:10;8.45;;;2.88;;
34673;SDS011;20879;55.668;37.858;2023-04-25T09:59:47;6.65;;;2.25;;
34673;SDS011;20879;55.668;37.858;2023-04-25T10:02:17;6.07;;;2.93;;
34673;SDS011;20879;55.668;37.858;2023-04-25T10:04:54;3.22;;;1.98;;
34673;SDS011;20879;55.668;37.858;2023-04-25T10:07:31;2.58;;;1.75;;
34673;SDS011;20879;55.668;37.858;2023-04-25T10:10:09;5.53;;;2.30;;
34673;SDS011;20879;55.668;37.858;2023-04-25T10:12:45;7.20;;;2.30;;
34673;SDS011;20879;55.668;37.858;2023-04-25T10:15:15;4.05;;;2.58;;
34673;SDS011;20879;55.668;37.858;2023-04-25T10:17:44;6.88;;;2.83;;
34673;SDS011;20879;55.668;37.858;2023-04-25T10:20:16;7.85;;;2.60;;
34673;SDS011;20879;55.668;37.858;2023-04-25T10:22:45;6.20;;;2.90;;
34673;SDS011;20879;55.668;37.858;2023-04-25T10:25:20;8.48;;;2.45;;
34673;SDS011;20879;55.668;37.858;2023-04-25T10:27:50;4.97;;;2.40;;
34673;SDS011;20879;55.668;37.858;2023-04-25T10:30:20;5.82;;;2.50;;
34673;SDS011;20879;55.668;37.858;2023-04-25T10:32:49;4.70;;;2.33;;
34673;SDS011;20879;55.668;37.858;2023-04-25T10:35:24;4.45;;;2.45;;
34673;SDS011;20879;55.668;37.858;2023-04-25T10:38:00;3.35;;;2.00;;
34673;SDS011;20879;55.668;37.858;2023-04-25T10:40:32;7.68;;;2.20;;
34673;SDS011;20879;55.668;37.858;2023-04-25T10:46:16;7.78;;;2.20;;
34673;SDS011;20879;55.668;37.858;2023-04-25T10:48:48;7.18;;;1.85;;
34673;SDS011;20879;55.668;37.858;2023-04-25T10:51:26;5.22;;;2.20;;
34673;SDS011;20879;55.668;37.858;2023-04-25T10:54:17;11.45;;;2.33;;
34673;SDS011;20879;55.668;37.858;2023-04-25T10:56:48;7.15;;;2.50;;
34673;SDS011;20879;55.668;37.858;2023-04-25T10:59:19;7.32;;;2.45;;
34673;SDS011;20879;55.668;37.858;2023-04-25T11:01:53;7.40;;;2.50;;
34673;SDS011;20879;55.668;37.858;2023-04-25T11:04:24;7.40;;;2.42;;
34673;SDS011;20879;55.668;37.858;2023-04-25T11:07:05;6.57;;;2.20;;
34673;SDS011;20879;55.668;37.858;2023-04-25T11:09:45;5.70;;;2.50;;
34673;SDS011;20879;55.668;37.858;2023-04-25T11:12:14;4.05;;;2.33;;
34673;SDS011;20879;55.668;37.858;2023-04-25T11:14:49;4.85;;;2.28;;
34673;SDS011;20879;55.668;37.858;2023-04-25T11:17:20;13.07;;;2.58;;
34673;SDS011;20879;55.668;37.858;2023-04-25T11:19:49;4.85;;;2.70;;
34673;SDS011;20879;55.668;37.858;2023-04-25T11:22:20;5.78;;;2.88;;
34673;SDS011;20879;55.668;37.858;2023-04-25T11:24:50;10.65;;;2.58;;
34673;SDS011;20879;55.668;37.858;2023-04-25T11:27:20;8.48;;;2.33;;
34673;SDS011;20879;55.668;37.858;2023-04-25T11:29:51;5.30;;;2.38;;
34673;SDS011;20879;55.668;37.858;2023-04-25T11:32:20;4.78;;;2.45;;
34673;SDS011;20879;55.668;37.858;2023-04-25T11:34:52;11.38;;;2.83;;
34673;SDS011;20879;55.668;37.858;2023-04-25T11:37:31;5.28;;;2.60;;
34673;SDS011;20879;55.668;37.858;2023-04-25T11:40:01;7.40;;;2.90;;
34673;SDS011;20879;55.668;37.858;2023-04-25T11:42:32;4.95;;;2.83;;
34673;SDS011;20879;55.668;37.858;2023-04-25T11:45:02;6.53;;;2.65;;
34673;SDS011;20879;55.668;37.858;2023-04-25T11:47:33;6.38;;;2.65;;
34673;SDS011;20879;55.668;37.858;2023-04-25T11:50:03;9.38;;;2.78;;
34673;SDS011;20879;55.668;37.858;2023-04-25T11:52:41;8.38;;;3.00;;
34673;SDS011;20879;55.668;37.858;2023-04-25T11:55:13;6.57;;;2.95;;
34673;SDS011;20879;55.668;37.858;2023-04-25T11:57:49;5.68;;;2.72;;
34673;SDS011;20879;55.668;37.858;2023-04-25T12:00:24;7.38;;;3.13;;
34673;SDS011;20879;55.668;37.858;2023-04-25T12:02:55;5.80;;;2.95;;
34673;SDS011;20879;55.668;37.858;2023-04-25T12:05:30;6.18;;;2.50;;
34673;SDS011;20879;55.668;37.858;2023-04-25T12:08:12;6.85;;;2.63;;
34673;SDS011;20879;55.668;37.858;2023-04-25T12:10:44;4.68;;;2.50;;
34673;SDS011;20879;55.668;37.858;2023-04-25T12:13:19;6.47;;;2.92;;
34673;SDS011;20879;55.668;37.858;2023-04-25T12:15:50;6.85;;;3.00;;
34673;SDS011;20879;55.668;37.858;2023-04-25T12:18:19;7.07;;;2.72;;
34673;SDS011;20879;55.668;37.858;2023-04-25T12:20:49;4.13;;;2.80;;
34673;SDS011;20879;55.668;37.858;2023-04-25T12:23:27;4.97;;;2.75;;
34673;SDS011;20879;55.668;37.858;2023-04-25T12:25:57;13.10;;;3.25;;
34673;SDS011;20879;55.668;37.858;2023-04-25T12:28:31;10.02;;;3.00;;
34673;SDS011;20879;55.668;37.858;2023-04-25T12:33:36;4.03;;;2.85;;
34673;SDS011;20879;55.668;37.858;2023-04-25T12:36:07;4.45;;;2.88;;
34673;SDS011;20879;55.668;37.858;2023-04-25T12:38:46;8.55;;;3.10;;
34673;SDS011;20879;55.668;37.858;2023-04-25T12:41:16;6.88;;;3.10;;
34673;SDS011;20879;55.668;37.858;2023-04-25T12:43:45;5.13;;;3.08;;
34673;SDS011;20879;55.668;37.858;2023-04-25T12:51:49;5.97;;;2.85;;
34673;SDS011;20879;55.668;37.858;2023-04-25T12:54:19;5.53;;;3.03;;
34673;SDS011;20879;55.668;37.858;2023-04-25T12:56:48;4.40;;;2.50;;
34673;SDS011;20879;55.668;37.858;2023-04-25T12:59:26;5.13;;;2.80;;
34673;SDS011;20879;55.668;37.858;2023-04-25T13:01:55;3.88;;;2.83;;
34673;SDS011;20879;55.668;37.858;2023-04-25T13:04:25;6.05;;;3.00;;
34673;SDS011;20879;55.668;37.858;2023-04-25T13:07:02;9.70;;;3.08;;
34673;SDS011;20879;55.668;37.858;2023-04-25T13:09:32;4.22;;;2.85;;
34673;SDS011;20879;55.668;37.858;2023-04-25T13:12:01;4.07;;;2.78;;
34673;SDS011;20879;55.668;37.858;2023-04-25T13:14:32;5.38;;;2.85;;
34673;SDS011;20879;55.668;37.858;2023-04-25T13:17:06;4.13;;;2.53;;
34673;SDS011;20879;55.668;37.858;2023-04-25T13:19:41;5.85;;;2.70;;
34673;SDS011;20879;55.668;37.858;2023-04-25T13:22:14;8.13;;;2.80;;
34673;SDS011;20879;55.668;37.858;2023-04-25T13:24:46;9.52;;;2.65;;
34673;SDS011;20879;55.668;37.858;2023-04-25T13:27:20;8.48;;;3.10;;
34673;SDS011;20879;55.668;37.858;2023-04-25T13:29:50;9.18;;;3.25;;
34673;SDS011;20879;55.668;37.858;2023-04-25T13:32:19;6.38;;;3.25;;
34673;SDS011;20879;55.668;37.858;2023-04-25T13:37:35;7.47;;;3.35;;
34673;SDS011;20879;55.668;37.858;2023-04-25T13:40:09;7.88;;;3.35;;
34673;SDS011;20879;55.668;37.858;2023-04-25T13:42:40;5.05;;;3.78;;
34673;SDS011;20879;55.668;37.858;2023-04-25T13:45:14;9.65;;;3.90;;
34673;SDS011;20879;55.668;37.858;2023-04-25T13:47:48;4.78;;;3.58;;
34673;SDS011;20879;55.668;37.858;2023-04-25T13:50:18;8.73;;;3.78;;
34673;SDS011;20879;55.668;37.858;2023-04-25T13:52:49;5.95;;;3.83;;
34673;SDS011;20879;55.668;37.858;2023-04-25T13:55:19;6.28;;;3.88;;
34673;SDS011;20879;55.668;37.858;2023-04-25T13:57:54;5.03;;;4.00;;
34673;SDS011;20879;55.668;37.858;2023-04-25T14:00:23;7.22;;;3.90;;
34673;SDS011;20879;55.668;37.858;2023-04-25T14:02:58;5.82;;;3.80;;
34673;SDS011;20879;55.668;37.858;2023-04-25T14:08:21;7.30;;;3.88;;
34673;SDS011;20879;55.668;37.858;2023-04-25T14:10:50;6.22;;;3.75;;
34673;SDS011;20879;55.668;37.858;2023-04-25T14:13:19;9.07;;;3.90;;
34673;SDS011;20879;55.668;37.858;2023-04-25T14:15:49;7.85;;;3.60;;
34673;SDS011;20879;55.668;37.858;2023-04-25T14:18:24;4.40;;;3.53;;
34673;SDS011;20879;55.668;37.858;2023-04-25T14:20:58;6.05;;;3.55;;
34673;SDS011;20879;55.668;37.858;2023-04-25T14:23:30;8.35;;;3.63;;
34673;SDS011;20879;55.668;37.858;2023-04-25T14:26:04;9.20;;;4.03;;
34673;SDS011;20879;55.668;37.858;2023-04-25T14:28:33;8.52;;;3.65;;
34673;SDS011;20879;55.668;37.858;2023-04-25T14:31:03;8.02;;;4.38;;
34673;SDS011;20879;55.668;37.858;2023-04-25T14:33:33;6.35;;;4.10;;
34673;SDS011;20879;55.668;37.858;2023-04-25T14:36:03;6.00;;;3.88;;
34673;SDS011;20879;55.668;37.858;2023-04-25T14:38:35;12.10;;;3.90;;
34673;SDS011;20879;55.668;37.858;2023-04-25T14:41:07;15.32;;;4.00;;
34673;SDS011;20879;55.668;37.858;2023-04-25T14:43:37;7.60;;;4.00;;
34673;SDS011;20879;55.668;37.858;2023-04-25T14:46:07;9.23;;;3.72;;
34673;SDS011;20879;55.668;37.858;2023-04-25T14:48:41;13.32;;;3.90;;
34673;SDS011;20879;55.668;37.858;2023-04-25T14:51:11;9.45;;;3.15;;
34673;SDS011;20879;55.668;37.858;2023-04-25T14:53:47;7.40;;;3.20;;
34673;SDS011;20879;55.668;37.858;2023-04-25T14:56:18;6.20;;;3.35;;
34673;SDS011;20879;55.668;37.858;2023-04-25T14:58:47;8.25;;;3.08;;
34673;SDS011;20879;55.668;37.858;2023-04-25T15:01:16;6.25;;;3.10;;
34673;SDS011;20879;55.668;37.858;2023-04-25T15:03:56;6.32;;;3.15;;
34673;SDS011;20879;55.668;37.858;2023-04-25T15:06:27;8.70;;;3.35;;
34673;SDS011;20879;55.668;37.858;2023-04-25T15:08:58;9.20;;;3.30;;
34673;SDS011;20879;55.668;37.858;2023-04-25T15:13:57;6.57;;;3.53;;
34673;SDS011;20879;55.668;37.858;2023-04-25T15:16:27;9.88;;;3.47;;
34673;SDS011;20879;55.668;37.858;2023-04-25T15:18:57;3.95;;;2.65;;
34673;SDS011;20879;55.668;37.858;2023-04-25T15:21:30;5.22;;;3.15;;
34673;SDS011;20879;55.668;37.858;2023-04-25T15:24:01;7.00;;;2.97;;
34673;SDS011;20879;55.668;37.858;2023-04-25T15:26:31;5.68;;;2.90;;
34673;SDS011;20879;55.668;37.858;2023-04-25T15:29:00;3.33;;;2.63;;
34673;SDS011;20879;55.668;37.858;2023-04-25T15:31:32;5.68;;;3.13;;
34673;SDS011;20879;55.668;37.858;2023-04-25T15:34:02;7.35;;;3.00;;
34673;SDS011;20879;55.668;37.858;2023-04-25T15:36:31;8.48;;;2.75;;
34673;SDS011;20879;55.668;37.858;2023-04-25T15:39:02;6.03;;;2.72;;
34673;SDS011;20879;55.668;37.858;2023-04-25T15:41:32;7.72;;;2.85;;
34673;SDS011;20879;55.668;37.858;2023-04-25T15:44:01;4.82;;;2.90;;
34673;SDS011;20879;55.668;37.858;2023-04-25T15:46:35;7.20;;;3.50;;
34673;SDS011;20879;55.668;37.858;2023-04-25T15:49:05;6.82;;;3.47;;
34673;SDS011;20879;55.668;37.858;2023-04-25T15:51:34;6.57;;;2.97;;